createdAt,value
2022-12-01T00:00:04.192Z,0
2022-12-01T00:01:07.277Z,0
2022-12-01T00:02:10.787Z,0
2022-12-01T00:03:14.972Z,0
2022-12-01T00:04:20.050Z,0
2022-12-01T00:05:23.472Z,0
2022-12-01T00:06:26.268Z,0
2022-12-01T00:07:29.275Z,0
2022-12-01T00:08:32.694Z,0
2022-12-01T00:09:35.500Z,0
2022-12-01T00:10:38.259Z,0
2022-12-01T00:11:41.343Z,0
2022-12-01T00:12:44.126Z,0
2022-12-01T00:13:46.548Z,0
2022-12-01T00:14:48.864Z,0
2022-12-01T00:15:52.156Z,0
2022-12-01T00:16:55.778Z,0
2022-12-01T00:17:59.330Z,0
2022-12-01T00:19:02.041Z,0
2022-12-01T00:20:05.953Z,0
2022-12-01T00:21:08.925Z,0
2022-12-01T00:22:12.056Z,0
2022-12-01T00:23:15.226Z,0
2022-12-01T00:24:18.014Z,0
2022-12-01T00:25:21.407Z,0
2022-12-01T00:26:24.731Z,0
2022-12-01T00:27:28.072Z,0
2022-12-01T00:28:31.507Z,0
2022-12-01T00:29:34.392Z,0
2022-12-01T00:30:37.761Z,0
2022-12-01T00:31:40.328Z,0
2022-12-01T00:32:43.289Z,0
2022-12-01T00:33:45.511Z,0
2022-12-01T00:34:48.577Z,0
2022-12-01T00:35:52.438Z,0
2022-12-01T00:36:55.757Z,0
2022-12-01T00:37:58.894Z,0
2022-12-01T00:39:01.592Z,0
2022-12-01T00:40:04.698Z,0
2022-12-01T00:41:07.111Z,0
2022-12-01T00:42:13.196Z,0
2022-12-01T00:43:16.055Z,0
2022-12-01T00:44:19.123Z,0
2022-12-01T00:45:21.833Z,0
2022-12-01T00:46:24.789Z,0
2022-12-01T00:47:27.922Z,0
2022-12-01T00:48:31.052Z,0
2022-12-01T00:49:33.632Z,0
2022-12-01T00:50:36.676Z,0
2022-12-01T00:51:40.492Z,0
2022-12-01T00:52:43.518Z,0
2022-12-01T00:53:46.561Z,0
2022-12-01T00:54:49.610Z,0
2022-12-01T00:55:52.583Z,0
2022-12-01T00:56:56.060Z,0
2022-12-01T00:57:58.997Z,0
2022-12-01T00:59:02.067Z,0
2022-12-01T01:00:04.846Z,0
2022-12-01T01:01:07.678Z,0
2022-12-01T01:02:10.820Z,0
2022-12-01T01:03:13.595Z,0
2022-12-01T01:04:16.663Z,0
2022-12-01T01:05:19.153Z,0
2022-12-01T01:06:21.320Z,0
2022-12-01T01:07:25.241Z,0
2022-12-01T01:08:28.647Z,0
2022-12-01T01:09:31.690Z,0
2022-12-01T01:10:34.389Z,0
2022-12-01T01:11:37.440Z,0
2022-12-01T01:12:40.154Z,0
2022-12-01T01:13:42.564Z,0
2022-12-01T01:14:45.059Z,0
2022-12-01T01:15:47.587Z,0
2022-12-01T01:16:51.102Z,0
2022-12-01T01:17:54.750Z,0
2022-12-01T01:18:57.802Z,0
2022-12-01T01:20:00.896Z,0
2022-12-01T01:21:03.393Z,0
2022-12-01T01:22:06.368Z,0
2022-12-01T01:23:09.998Z,0
2022-12-01T01:24:12.464Z,0
2022-12-01T01:25:15.822Z,0
2022-12-01T01:26:18.537Z,0
2022-12-01T01:27:21.860Z,0
2022-12-01T01:28:25.062Z,0
2022-12-01T01:29:27.836Z,0
2022-12-01T01:30:30.384Z,0
2022-12-01T01:31:33.133Z,0
2022-12-01T01:32:36.461Z,0
2022-12-01T01:33:39.960Z,0
2022-12-01T01:34:42.961Z,0
2022-12-01T01:35:45.485Z,0
2022-12-01T01:36:48.546Z,0
2022-12-01T01:37:51.527Z,0
2022-12-01T01:38:55.366Z,0
2022-12-01T01:39:57.783Z,0
2022-12-01T01:41:00.355Z,0
2022-12-01T01:42:04.066Z,0
2022-12-01T01:43:07.108Z,0
2022-12-01T01:44:10.442Z,0
2022-12-01T01:45:13.147Z,0
2022-12-01T01:46:16.068Z,0
2022-12-01T01:47:20.203Z,0
2022-12-01T01:48:23.355Z,0
2022-12-01T01:49:25.867Z,0
2022-12-01T01:50:28.844Z,0
2022-12-01T01:51:31.838Z,0
2022-12-01T01:52:34.893Z,0
2022-12-01T01:53:38.023Z,0
2022-12-01T01:54:41.583Z,0
2022-12-01T01:55:44.063Z,0
2022-12-01T01:56:46.501Z,0
2022-12-01T01:57:49.742Z,0
2022-12-01T01:58:53.160Z,0
2022-12-01T01:59:56.517Z,0
2022-12-01T02:00:58.728Z,0
2022-12-01T02:02:02.586Z,0
2022-12-01T02:03:06.165Z,0
2022-12-01T02:04:09.145Z,0
2022-12-01T02:05:11.843Z,0
2022-12-01T02:06:14.696Z,0
2022-12-01T02:07:16.932Z,0
2022-12-01T02:08:19.763Z,0
2022-12-01T02:09:22.189Z,0
2022-12-01T02:10:26.300Z,0
2022-12-01T02:11:28.587Z,0
2022-12-01T02:12:31.316Z,0
2022-12-01T02:13:34.293Z,0
2022-12-01T02:14:36.785Z,0
2022-12-01T02:15:39.203Z,0
2022-12-01T02:16:42.185Z,0
2022-12-01T02:17:45.900Z,0
2022-12-01T02:18:49.341Z,0
2022-12-01T02:19:51.920Z,0
2022-12-01T02:20:55.320Z,0
2022-12-01T02:21:57.915Z,0
2022-12-01T02:23:00.898Z,0
2022-12-01T02:24:03.418Z,0
2022-12-01T02:25:06.540Z,0
2022-12-01T02:26:10.102Z,0
2022-12-01T02:27:13.073Z,0
2022-12-01T02:28:16.261Z,0
2022-12-01T02:29:19.236Z,0
2022-12-01T02:30:22.460Z,0
2022-12-01T02:31:25.514Z,0
2022-12-01T02:32:28.243Z,0
2022-12-01T02:33:30.821Z,0
2022-12-01T02:34:34.255Z,0
2022-12-01T02:35:38.002Z,0
2022-12-01T02:36:40.144Z,0
2022-12-01T02:37:43.118Z,0
2022-12-01T02:38:46.277Z,0
2022-12-01T02:39:49.270Z,0
2022-12-01T02:40:53.116Z,0
2022-12-01T02:41:57.024Z,0
2022-12-01T02:43:00.072Z,0
2022-12-01T02:44:02.288Z,0
2022-12-01T02:45:04.981Z,0
2022-12-01T02:46:07.505Z,0
2022-12-01T02:47:10.820Z,0
2022-12-01T02:48:13.629Z,0
2022-12-01T02:49:16.054Z,0
2022-12-01T02:50:18.745Z,0
2022-12-01T02:51:21.794Z,0
2022-12-01T02:52:24.216Z,0
2022-12-01T02:53:27.017Z,0
2022-12-01T02:54:29.542Z,0
2022-12-01T02:55:32.222Z,0
2022-12-01T02:56:35.222Z,0
2022-12-01T02:57:39.397Z,0
2022-12-01T02:58:42.247Z,0
2022-12-01T02:59:45.616Z,0
2022-12-01T03:00:50.614Z,0
2022-12-01T03:01:53.731Z,0
2022-12-01T03:02:57.091Z,0
2022-12-01T03:04:00.129Z,0
2022-12-01T03:05:02.926Z,0
2022-12-01T03:06:05.702Z,0
2022-12-01T03:07:09.415Z,0
2022-12-01T03:08:12.550Z,0
2022-12-01T03:09:15.421Z,0
2022-12-01T03:10:18.429Z,0
2022-12-01T03:11:21.387Z,0
2022-12-01T03:12:24.491Z,0
2022-12-01T03:13:28.329Z,0
2022-12-01T03:14:31.584Z,0
2022-12-01T03:15:34.371Z,0
2022-12-01T03:16:37.401Z,0
2022-12-01T03:17:40.533Z,0
2022-12-01T03:18:43.390Z,0
2022-12-01T03:19:46.009Z,0
2022-12-01T03:20:51.372Z,0
2022-12-01T03:21:54.154Z,0
2022-12-01T03:22:57.825Z,0
2022-12-01T03:24:00.865Z,0
2022-12-01T03:25:03.916Z,0
2022-12-01T03:26:07.007Z,0
2022-12-01T03:27:10.618Z,0
2022-12-01T03:28:21.003Z,0
2022-12-01T03:29:26.518Z,0
2022-12-01T03:30:29.589Z,0
2022-12-01T03:31:32.685Z,0
2022-12-01T03:32:36.701Z,0
2022-12-01T03:33:38.653Z,0
2022-12-01T03:34:41.630Z,0
2022-12-01T03:35:44.959Z,0
2022-12-01T03:36:47.653Z,0
2022-12-01T03:37:50.433Z,0
2022-12-01T03:38:53.197Z,0
2022-12-01T03:40:00.116Z,0
2022-12-01T03:41:04.282Z,0
2022-12-01T03:42:07.720Z,0
2022-12-01T03:43:10.694Z,0
2022-12-01T03:44:14.031Z,0
2022-12-01T03:45:17.937Z,0
2022-12-01T03:46:21.338Z,0
2022-12-01T03:47:25.155Z,0
2022-12-01T03:48:27.959Z,0
2022-12-01T03:49:31.308Z,0
2022-12-01T03:50:34.832Z,0
2022-12-01T03:51:37.404Z,0
2022-12-01T03:52:40.728Z,0
2022-12-01T03:53:43.514Z,0
2022-12-01T03:54:46.078Z,0
2022-12-01T03:55:48.787Z,0
2022-12-01T03:56:51.760Z,0
2022-12-01T03:57:55.791Z,0
2022-12-01T03:58:58.917Z,0
2022-12-01T04:00:01.915Z,0
2022-12-01T04:01:06.107Z,0
2022-12-01T04:02:09.481Z,0
2022-12-01T04:03:13.631Z,0
2022-12-01T04:04:17.485Z,0
2022-12-01T04:05:25.119Z,0
2022-12-01T04:06:28.690Z,0
2022-12-01T04:07:32.411Z,0
2022-12-01T04:08:35.738Z,0
2022-12-01T04:09:38.834Z,0
2022-12-01T04:10:41.334Z,0
2022-12-01T04:11:45.036Z,0
2022-12-01T04:12:48.087Z,0
2022-12-01T04:13:50.918Z,0
2022-12-01T04:14:54.621Z,0
2022-12-01T04:15:57.838Z,0
2022-12-01T04:17:02.170Z,0
2022-12-01T04:18:04.666Z,0
2022-12-01T04:19:07.716Z,0
2022-12-01T04:20:10.414Z,0
2022-12-01T04:21:12.990Z,0
2022-12-01T04:22:15.297Z,0
2022-12-01T04:23:18.066Z,0
2022-12-01T04:24:20.564Z,0
2022-12-01T04:25:22.977Z,0
2022-12-01T04:26:26.388Z,0
2022-12-01T04:27:29.453Z,0
2022-12-01T04:28:32.022Z,0
2022-12-01T04:29:35.364Z,0
2022-12-01T04:30:38.330Z,0
2022-12-01T04:31:41.380Z,0
2022-12-01T04:32:45.985Z,0
2022-12-01T04:33:49.333Z,0
2022-12-01T04:34:52.456Z,0
2022-12-01T04:35:55.015Z,0
2022-12-01T04:36:56.882Z,0
2022-12-01T04:37:59.459Z,0
2022-12-01T04:39:02.559Z,0
2022-12-01T04:40:05.371Z,0
2022-12-01T04:41:08.131Z,0
2022-12-01T04:42:11.523Z,0
2022-12-01T04:43:14.357Z,0
2022-12-01T04:44:16.576Z,0
2022-12-01T04:45:19.153Z,0
2022-12-01T04:46:22.274Z,0
2022-12-01T04:47:26.064Z,0
2022-12-01T04:48:30.187Z,0
2022-12-01T04:49:33.340Z,0
2022-12-01T04:50:35.934Z,0
2022-12-01T04:51:38.788Z,0
2022-12-01T04:52:41.356Z,0
2022-12-01T04:53:43.770Z,0
2022-12-01T04:54:47.239Z,0
2022-12-01T04:55:49.773Z,0
2022-12-01T04:56:52.748Z,0
2022-12-01T04:57:55.947Z,0
2022-12-01T04:58:59.304Z,0
2022-12-01T05:00:01.791Z,0
2022-12-01T05:01:04.584Z,0
2022-12-01T05:02:08.613Z,0
2022-12-01T05:03:15.143Z,0
2022-12-01T05:04:19.384Z,0
2022-12-01T05:05:22.181Z,0
2022-12-01T05:06:24.881Z,0
2022-12-01T05:07:27.764Z,0
2022-12-01T05:08:31.415Z,0
2022-12-01T05:09:34.476Z,0
2022-12-01T05:10:36.977Z,0
2022-12-01T05:11:39.697Z,0
2022-12-01T05:12:43.301Z,0
2022-12-01T05:13:46.003Z,0
2022-12-01T05:14:48.573Z,0
2022-12-01T05:15:51.747Z,0
2022-12-01T05:16:54.738Z,0
2022-12-01T05:17:57.171Z,0
2022-12-01T05:18:59.927Z,0
2022-12-01T05:20:04.348Z,0
2022-12-01T05:21:07.145Z,0
2022-12-01T05:22:09.638Z,0
2022-12-01T05:23:16.684Z,0
2022-12-01T05:24:20.333Z,0
2022-12-01T05:25:23.588Z,0
2022-12-01T05:26:26.665Z,0
2022-12-01T05:27:30.099Z,0
2022-12-01T05:28:32.790Z,0
2022-12-01T05:29:35.956Z,0
2022-12-01T05:30:39.555Z,0
2022-12-01T05:31:43.064Z,0
2022-12-01T05:32:46.866Z,0
2022-12-01T05:33:49.509Z,0
2022-12-01T05:34:52.834Z,0
2022-12-01T05:35:57.017Z,0
2022-12-01T05:37:00.077Z,0
2022-12-01T05:38:07.471Z,0
2022-12-01T05:39:10.933Z,0
2022-12-01T05:40:14.255Z,0
2022-12-01T05:41:16.681Z,0
2022-12-01T05:42:20.035Z,0
2022-12-01T05:43:27.093Z,0
2022-12-01T05:44:32.466Z,0
2022-12-01T05:45:35.137Z,0
2022-12-01T05:46:38.398Z,0
2022-12-01T05:47:40.821Z,0
2022-12-01T05:48:43.956Z,0
2022-12-01T05:49:46.588Z,0
2022-12-01T05:50:50.886Z,0
2022-12-01T05:51:54.762Z,0
2022-12-01T05:52:58.085Z,0
2022-12-01T05:54:01.235Z,0
2022-12-01T05:55:04.562Z,0
2022-12-01T05:56:07.094Z,0
2022-12-01T05:57:10.161Z,0
2022-12-01T05:58:13.326Z,0
2022-12-01T05:59:16.108Z,0
2022-12-01T06:00:18.960Z,0
2022-12-01T06:01:22.293Z,0
2022-12-01T06:02:25.346Z,0
2022-12-01T06:03:28.688Z,0
2022-12-01T06:04:31.318Z,0
2022-12-01T06:05:34.168Z,0
2022-12-01T06:06:36.855Z,0
2022-12-01T06:07:41.080Z,0
2022-12-01T06:08:44.196Z,0
2022-12-01T06:09:47.048Z,0
2022-12-01T06:10:51.978Z,0
2022-12-01T06:11:55.109Z,0
2022-12-01T06:12:57.950Z,0
2022-12-01T06:14:01.549Z,0
2022-12-01T06:15:04.131Z,0
2022-12-01T06:16:07.205Z,0
2022-12-01T06:17:09.980Z,0
2022-12-01T06:18:13.105Z,0
2022-12-01T06:19:16.348Z,0
2022-12-01T06:20:19.789Z,0
2022-12-01T06:21:23.135Z,0
2022-12-01T06:22:25.945Z,0
2022-12-01T06:23:30.664Z,0
2022-12-01T06:24:33.834Z,0
2022-12-01T06:25:36.616Z,0
2022-12-01T06:26:39.873Z,0
2022-12-01T06:27:42.310Z,0
2022-12-01T06:28:45.057Z,0
2022-12-01T06:29:47.871Z,0
2022-12-01T06:30:54.489Z,0
2022-12-01T06:32:06.064Z,0
2022-12-01T06:33:09.151Z,0
2022-12-01T06:34:11.637Z,0
2022-12-01T06:35:14.425Z,0
2022-12-01T06:36:17.218Z,0
2022-12-01T06:37:20.263Z,0
2022-12-01T06:38:22.956Z,0
2022-12-01T06:39:26.843Z,4
2022-12-01T06:40:28.973Z,4
2022-12-01T06:41:32.348Z,0
2022-12-01T06:42:35.320Z,0
2022-12-01T06:43:38.927Z,4
2022-12-01T06:44:41.622Z,4
2022-12-01T06:45:45.273Z,4
2022-12-01T06:46:49.010Z,4
2022-12-01T06:47:51.430Z,4
2022-12-01T06:48:54.286Z,8
2022-12-01T06:49:56.761Z,8
2022-12-01T06:50:59.810Z,4
2022-12-01T06:52:02.004Z,8
2022-12-01T06:53:05.133Z,8
2022-12-01T06:54:07.547Z,8
2022-12-01T06:55:11.400Z,12
2022-12-01T06:56:14.861Z,12
2022-12-01T06:57:19.800Z,12
2022-12-01T06:58:24.702Z,12
2022-12-01T06:59:29.541Z,16
2022-12-01T07:00:34.556Z,16
2022-12-01T07:01:37.371Z,16
2022-12-01T07:02:39.806Z,16
2022-12-01T07:03:42.990Z,24
2022-12-01T07:04:46.395Z,24
2022-12-01T07:05:48.889Z,28
2022-12-01T07:06:51.591Z,24
2022-12-01T07:07:59.258Z,28
2022-12-01T07:09:02.549Z,32
2022-12-01T07:10:05.976Z,36
2022-12-01T07:11:09.898Z,40
2022-12-01T07:12:13.305Z,44
2022-12-01T07:13:16.177Z,44
2022-12-01T07:14:19.507Z,48
2022-12-01T07:15:21.939Z,48
2022-12-01T07:16:25.402Z,48
2022-12-01T07:17:29.006Z,56
2022-12-01T07:18:32.340Z,56
2022-12-01T07:19:34.768Z,60
2022-12-01T07:20:37.606Z,64
2022-12-01T07:21:41.210Z,68
2022-12-01T07:22:44.240Z,72
2022-12-01T07:23:47.319Z,72
2022-12-01T07:24:50.301Z,80
2022-12-01T07:25:53.089Z,88
2022-12-01T07:26:56.935Z,96
2022-12-01T07:27:59.506Z,104
2022-12-01T07:29:02.904Z,112
2022-12-01T07:30:06.232Z,124
2022-12-01T07:31:08.621Z,132
2022-12-01T07:32:12.641Z,136
2022-12-01T07:33:16.043Z,136
2022-12-01T07:34:19.380Z,152
2022-12-01T07:35:22.076Z,172
2022-12-01T07:36:25.286Z,204
2022-12-01T07:37:28.549Z,244
2022-12-01T07:38:32.060Z,292
2022-12-01T07:39:35.248Z,344
2022-12-01T07:40:37.848Z,376
2022-12-01T07:41:40.548Z,428
2022-12-01T07:42:44.648Z,504
2022-12-01T07:43:47.224Z,556
2022-12-01T07:44:49.651Z,568
2022-12-01T07:45:52.255Z,568
2022-12-01T07:46:55.503Z,600
2022-12-01T07:47:58.636Z,644
2022-12-01T07:49:01.726Z,632
2022-12-01T07:50:04.420Z,616
2022-12-01T07:51:07.855Z,644
2022-12-01T07:52:10.630Z,668
2022-12-01T07:53:13.677Z,684
2022-12-01T07:54:16.371Z,688
2022-12-01T07:55:19.193Z,692
2022-12-01T07:56:22.694Z,676
2022-12-01T07:57:25.672Z,664
2022-12-01T07:58:29.583Z,648
2022-12-01T07:59:32.275Z,632
2022-12-01T08:00:35.529Z,672
2022-12-01T08:01:43.007Z,704
2022-12-01T08:02:48.085Z,704
2022-12-01T08:03:52.081Z,688
2022-12-01T08:04:55.336Z,712
2022-12-01T08:05:58.818Z,732
2022-12-01T08:07:01.621Z,740
2022-12-01T08:08:05.072Z,696
2022-12-01T08:09:08.980Z,652
2022-12-01T08:10:12.306Z,656
2022-12-01T08:11:15.817Z,668
2022-12-01T08:12:18.781Z,688
2022-12-01T08:13:21.900Z,688
2022-12-01T08:14:26.282Z,680
2022-12-01T08:15:29.428Z,672
2022-12-01T08:16:32.837Z,668
2022-12-01T08:17:35.900Z,656
2022-12-01T08:18:39.133Z,656
2022-12-01T08:19:42.104Z,644
2022-12-01T08:20:45.462Z,640
2022-12-01T08:21:49.191Z,640
2022-12-01T08:22:52.572Z,648
2022-12-01T08:23:55.318Z,644
2022-12-01T08:24:58.166Z,696
2022-12-01T08:26:01.127Z,740
2022-12-01T08:27:04.864Z,736
2022-12-01T08:28:08.008Z,676
2022-12-01T08:29:14.636Z,668
2022-12-01T08:30:24.166Z,688
2022-12-01T08:31:26.834Z,700
2022-12-01T08:32:30.829Z,664
2022-12-01T08:33:34.212Z,648
2022-12-01T08:34:37.646Z,656
2022-12-01T08:35:39.869Z,656
2022-12-01T08:36:42.909Z,720
2022-12-01T08:37:45.785Z,756
2022-12-01T08:38:49.209Z,860
2022-12-01T08:39:52.519Z,1044
2022-12-01T08:40:55.122Z,1096
2022-12-01T08:41:57.892Z,1080
2022-12-01T08:43:00.798Z,1144
2022-12-01T08:44:04.724Z,1148
2022-12-01T08:45:07.218Z,1152
2022-12-01T08:46:11.376Z,1208
2022-12-01T08:47:18.677Z,1128
2022-12-01T08:48:22.165Z,1192
2022-12-01T08:49:25.013Z,1156
2022-12-01T08:50:28.145Z,1236
2022-12-01T08:51:30.918Z,1188
2022-12-01T08:52:34.275Z,1244
2022-12-01T08:53:41.326Z,1216
2022-12-01T08:54:49.197Z,1196
2022-12-01T08:55:52.181Z,1044
2022-12-01T08:56:55.230Z,1064
2022-12-01T08:57:58.557Z,1084
2022-12-01T08:59:01.623Z,972
2022-12-01T09:00:04.774Z,1072
2022-12-01T09:01:07.544Z,1096
2022-12-01T09:02:11.697Z,1144
2022-12-01T09:03:14.679Z,1092
2022-12-01T09:04:17.377Z,1040
2022-12-01T09:05:20.254Z,928
2022-12-01T09:06:23.407Z,916
2022-12-01T09:07:27.420Z,992
2022-12-01T09:08:30.884Z,1024
2022-12-01T09:09:34.319Z,1104
2022-12-01T09:10:37.371Z,1092
2022-12-01T09:11:40.148Z,1100
2022-12-01T09:12:43.232Z,1220
2022-12-01T09:13:50.034Z,1260
2022-12-01T09:14:58.088Z,1184
2022-12-01T09:16:01.267Z,1208
2022-12-01T09:17:04.760Z,1204
2022-12-01T09:18:08.939Z,1156
2022-12-01T09:19:13.304Z,1176
2022-12-01T09:20:27.362Z,1084
2022-12-01T09:21:30.510Z,1052
2022-12-01T09:22:33.676Z,1008
2022-12-01T09:23:36.725Z,956
2022-12-01T09:24:40.057Z,916
2022-12-01T09:25:43.538Z,856
2022-12-01T09:26:46.250Z,900
2022-12-01T09:27:48.949Z,912
2022-12-01T09:28:52.375Z,920
2022-12-01T09:29:55.152Z,956
2022-12-01T09:30:58.643Z,920
2022-12-01T09:32:02.689Z,920
2022-12-01T09:33:06.433Z,988
2022-12-01T09:34:10.540Z,988
2022-12-01T09:35:12.946Z,1012
2022-12-01T09:36:24.337Z,992
2022-12-01T09:37:26.835Z,1036
2022-12-01T09:38:29.685Z,1052
2022-12-01T09:39:33.090Z,1056
2022-12-01T09:40:36.322Z,1104
2022-12-01T09:41:39.406Z,1068
2022-12-01T09:42:42.512Z,1068
2022-12-01T09:43:45.664Z,1080
2022-12-01T09:44:48.716Z,1024
2022-12-01T09:45:51.868Z,1032
2022-12-01T09:46:55.163Z,1060
2022-12-01T09:47:58.848Z,1076
2022-12-01T09:49:02.173Z,1072
2022-12-01T09:50:06.364Z,1088
2022-12-01T09:51:10.140Z,1116
2022-12-01T09:52:13.854Z,1132
2022-12-01T09:53:16.832Z,1120
2022-12-01T09:54:20.187Z,1084
2022-12-01T09:55:23.835Z,1056
2022-12-01T09:56:27.280Z,1044
2022-12-01T09:57:30.694Z,1044
2022-12-01T09:58:33.830Z,1048
2022-12-01T09:59:35.880Z,1020
2022-12-01T10:00:39.066Z,1076
2022-12-01T10:01:42.639Z,1152
2022-12-01T10:02:46.404Z,1192
2022-12-01T10:03:49.385Z,1208
2022-12-01T10:04:52.268Z,1224
2022-12-01T10:06:25.578Z,1256
2022-12-01T10:07:32.667Z,1352
2022-12-01T10:08:36.546Z,1404
2022-12-01T10:09:39.240Z,1420
2022-12-01T10:10:41.200Z,1504
2022-12-01T10:11:44.186Z,1540
2022-12-01T10:12:46.982Z,1616
2022-12-01T10:13:50.472Z,1984
2022-12-01T10:14:53.730Z,2244
2022-12-01T10:15:57.286Z,2352
2022-12-01T10:17:00.977Z,2368
2022-12-01T10:18:04.075Z,2128
2022-12-01T10:19:07.394Z,2040
2022-12-01T10:20:10.718Z,2116
2022-12-01T10:21:14.868Z,2112
2022-12-01T10:22:17.624Z,2224
2022-12-01T10:23:20.544Z,2456
2022-12-01T10:24:23.391Z,2888
2022-12-01T10:25:26.794Z,3448
2022-12-01T10:26:30.203Z,3740
2022-12-01T10:27:33.908Z,4512
2022-12-01T10:28:37.239Z,4568
2022-12-01T10:29:43.797Z,4300
2022-12-01T10:30:53.466Z,3808
2022-12-01T10:31:56.716Z,3544
2022-12-01T10:33:00.723Z,3536
2022-12-01T10:34:04.394Z,3224
2022-12-01T10:35:06.891Z,2916
2022-12-01T10:36:10.331Z,2628
2022-12-01T10:37:14.558Z,2396
2022-12-01T10:38:17.952Z,2244
2022-12-01T10:39:21.032Z,2116
2022-12-01T10:40:24.092Z,2028
2022-12-01T10:41:27.219Z,2008
2022-12-01T10:42:31.270Z,1960
2022-12-01T10:43:34.962Z,1876
2022-12-01T10:44:38.124Z,1808
2022-12-01T10:45:41.602Z,840
2022-12-01T10:46:45.197Z,1748
2022-12-01T10:47:47.973Z,1708
2022-12-01T10:48:55.833Z,1656
2022-12-01T10:49:59.201Z,1640
2022-12-01T10:51:01.611Z,1644
2022-12-01T10:52:04.957Z,1644
2022-12-01T10:53:08.626Z,1604
2022-12-01T10:54:11.979Z,1588
2022-12-01T10:55:14.776Z,1504
2022-12-01T10:56:17.622Z,1460
2022-12-01T10:57:21.062Z,1404
2022-12-01T10:58:24.102Z,1388
2022-12-01T10:59:27.178Z,1416
2022-12-01T11:02:05.651Z,1412
2022-12-01T11:03:09.743Z,1520
2022-12-01T11:04:24.088Z,1608
2022-12-01T11:05:27.160Z,1752
2022-12-01T11:06:31.118Z,1812
2022-12-01T11:07:34.269Z,1796
2022-12-01T11:08:38.864Z,1740
2022-12-01T11:09:42.238Z,1792
2022-12-01T11:10:45.648Z,1776
2022-12-01T11:11:48.987Z,1816
2022-12-01T11:12:52.344Z,2024
2022-12-01T11:13:55.781Z,2016
2022-12-01T11:14:59.406Z,2052
2022-12-01T11:16:02.491Z,2016
2022-12-01T11:17:07.048Z,2032
2022-12-01T11:18:10.649Z,2004
2022-12-01T11:19:13.630Z,1988
2022-12-01T11:20:21.905Z,2080
2022-12-01T11:21:25.801Z,2080
2022-12-01T11:22:28.860Z,1944
2022-12-01T11:23:32.294Z,1872
2022-12-01T11:24:36.413Z,1860
2022-12-01T11:25:39.686Z,1912
2022-12-01T11:26:43.019Z,2028
2022-12-01T11:27:46.055Z,2048
2022-12-01T11:28:49.103Z,2044
2022-12-01T11:29:52.976Z,2016
2022-12-01T11:30:56.852Z,1960
2022-12-01T11:32:00.943Z,1908
2022-12-01T11:33:04.672Z,1904
2022-12-01T11:34:08.147Z,1904
2022-12-01T11:35:11.398Z,1892
2022-12-01T11:36:16.209Z,1908
2022-12-01T11:37:19.015Z,1920
2022-12-01T11:38:30.039Z,1940
2022-12-01T11:39:34.528Z,1992
2022-12-01T11:40:38.680Z,2016
2022-12-01T11:41:42.005Z,2052
2022-12-01T11:42:45.648Z,2048
2022-12-01T11:43:56.808Z,2068
2022-12-01T11:45:53.983Z,2164
2022-12-01T11:47:21.393Z,2208
2022-12-01T11:48:27.741Z,2376
2022-12-01T11:49:31.375Z,2540
2022-12-01T11:50:34.447Z,2604
2022-12-01T11:51:39.921Z,2752
2022-12-01T11:52:44.357Z,2804
2022-12-01T11:53:49.171Z,2976
2022-12-01T11:54:53.355Z,2716
2022-12-01T11:55:57.571Z,2520
2022-12-01T11:57:25.747Z,2440
2022-12-01T11:58:38.148Z,2484
2022-12-01T11:59:42.100Z,2516
2022-12-01T12:00:45.156Z,2536
2022-12-01T12:01:47.900Z,2576
2022-12-01T12:02:51.279Z,2632
2022-12-01T12:03:54.881Z,2648
2022-12-01T12:04:58.580Z,2652
2022-12-01T12:06:32.211Z,2728
2022-12-01T12:07:44.428Z,2952
2022-12-01T12:08:50.179Z,3020
2022-12-01T12:09:54.921Z,3096
2022-12-01T12:10:59.598Z,3240
2022-12-01T12:12:04.666Z,3280
2022-12-01T12:13:08.828Z,3160
2022-12-01T12:14:11.977Z,3108
2022-12-01T12:15:15.962Z,3228
2022-12-01T12:16:19.122Z,3396
2022-12-01T12:17:21.976Z,3508
2022-12-01T12:18:25.780Z,3436
2022-12-01T12:19:33.861Z,3396
2022-12-01T12:21:15.123Z,3096
2022-12-01T12:22:18.291Z,2852
2022-12-01T12:23:21.650Z,2740
2022-12-01T12:24:25.276Z,2668
2022-12-01T12:25:27.771Z,2708
2022-12-01T12:26:30.376Z,2780
2022-12-01T12:27:34.442Z,2872
2022-12-01T12:28:37.446Z,2956
2022-12-01T12:29:40.146Z,3072
2022-12-01T12:30:42.986Z,3204
2022-12-01T12:31:47.133Z,3312
2022-12-01T12:32:49.983Z,3412
2022-12-01T12:33:53.413Z,3372
2022-12-01T12:34:56.192Z,3268
2022-12-01T12:35:59.544Z,3188
2022-12-01T12:37:02.597Z,3200
2022-12-01T12:38:05.991Z,3044
2022-12-01T12:39:12.128Z,2924
2022-12-01T12:40:19.694Z,2872
2022-12-01T12:41:23.690Z,2728
2022-12-01T12:42:25.866Z,2552
2022-12-01T12:43:29.729Z,2288
2022-12-01T12:44:36.967Z,2156
2022-12-01T12:45:41.129Z,2104
2022-12-01T12:46:43.996Z,2020
2022-12-01T12:47:48.047Z,1932
2022-12-01T12:49:12.003Z,1824
2022-12-01T12:50:24.292Z,1712
2022-12-01T12:51:27.157Z,1620
2022-12-01T12:52:30.493Z,1592
2022-12-01T12:53:32.633Z,1744
2022-12-01T12:54:35.882Z,1916
2022-12-01T12:55:40.409Z,1968
2022-12-01T12:56:43.576Z,1976
2022-12-01T12:57:47.301Z,1984
2022-12-01T12:58:51.138Z,1944
2022-12-01T12:59:54.187Z,1948
2022-12-01T13:00:57.234Z,1996
2022-12-01T13:02:00.311Z,1884
2022-12-01T13:03:03.332Z,1808
2022-12-01T13:04:07.122Z,1768
2022-12-01T13:05:10.328Z,1736
2022-12-01T13:06:13.379Z,1684
2022-12-01T13:07:16.806Z,1652
2022-12-01T13:08:19.576Z,1684
2022-12-01T13:09:22.904Z,1720
2022-12-01T13:10:25.962Z,1736
2022-12-01T13:11:28.694Z,1680
2022-12-01T13:12:31.721Z,1608
2022-12-01T13:13:35.150Z,1528
2022-12-01T13:14:39.229Z,1416
2022-12-01T13:15:42.656Z,1324
2022-12-01T13:16:45.521Z,1260
2022-12-01T13:17:48.771Z,1240
2022-12-01T13:18:51.266Z,1252
2022-12-01T13:19:54.422Z,1256
2022-12-01T13:20:57.787Z,1260
2022-12-01T13:22:00.667Z,1268
2022-12-01T13:23:04.972Z,1268
2022-12-01T13:24:08.751Z,1276
2022-12-01T13:25:11.890Z,1268
2022-12-01T13:26:15.336Z,1252
2022-12-01T13:27:18.756Z,1308
2022-12-01T13:28:22.021Z,1404
2022-12-01T13:29:25.283Z,1296
2022-12-01T13:30:29.103Z,1164
2022-12-01T13:31:32.198Z,1068
2022-12-01T13:32:35.754Z,1036
2022-12-01T13:33:38.001Z,988
2022-12-01T13:34:41.070Z,936
2022-12-01T13:35:43.782Z,904
2022-12-01T13:36:47.311Z,868
2022-12-01T13:37:50.084Z,856
2022-12-01T13:38:53.412Z,800
2022-12-01T13:39:56.280Z,748
2022-12-01T13:40:58.989Z,708
2022-12-01T13:42:02.319Z,672
2022-12-01T13:43:10.219Z,620
2022-12-01T13:44:18.614Z,568
2022-12-01T13:45:22.984Z,572
2022-12-01T13:46:26.808Z,612
2022-12-01T13:47:30.768Z,652
2022-12-01T13:48:33.731Z,684
2022-12-01T13:49:36.889Z,700
2022-12-01T13:50:39.755Z,712
2022-12-01T13:51:42.612Z,688
2022-12-01T13:52:45.942Z,652
2022-12-01T13:53:48.444Z,636
2022-12-01T13:54:51.528Z,640
2022-12-01T13:55:55.129Z,624
2022-12-01T13:56:58.692Z,608
2022-12-01T13:58:01.384Z,580
2022-12-01T13:59:04.809Z,544
2022-12-01T14:00:07.780Z,484
2022-12-01T14:01:11.588Z,440
2022-12-01T14:02:16.063Z,440
2022-12-01T14:03:20.394Z,460
2022-12-01T14:04:24.240Z,516
2022-12-01T14:05:27.302Z,580
2022-12-01T14:06:30.911Z,644
2022-12-01T14:07:34.956Z,672
2022-12-01T14:08:39.106Z,664
2022-12-01T14:09:42.322Z,660
2022-12-01T14:10:45.703Z,640
2022-12-01T14:11:48.203Z,652
2022-12-01T14:12:51.638Z,640
2022-12-01T14:13:54.519Z,628
2022-12-01T14:14:58.267Z,572
2022-12-01T14:16:02.760Z,520
2022-12-01T14:17:06.312Z,512
2022-12-01T14:18:10.418Z,508
2022-12-01T14:19:13.315Z,528
2022-12-01T14:20:17.019Z,480
2022-12-01T14:21:19.723Z,468
2022-12-01T14:22:23.894Z,460
2022-12-01T14:23:27.740Z,428
2022-12-01T14:24:30.961Z,412
2022-12-01T14:25:34.639Z,400
2022-12-01T14:26:42.048Z,372
2022-12-01T14:27:48.457Z,348
2022-12-01T14:28:51.885Z,344
2022-12-01T14:29:54.871Z,328
2022-12-01T14:30:58.098Z,316
2022-12-01T14:32:01.673Z,308
2022-12-01T14:33:05.173Z,300
2022-12-01T14:34:09.781Z,296
2022-12-01T14:35:21.635Z,280
2022-12-01T14:36:25.079Z,268
2022-12-01T14:37:27.848Z,260
2022-12-01T14:38:30.908Z,236
2022-12-01T14:39:34.242Z,228
2022-12-01T14:40:37.716Z,208
2022-12-01T14:41:41.046Z,192
2022-12-01T14:42:44.302Z,184
2022-12-01T14:43:47.706Z,176
2022-12-01T14:44:51.740Z,164
2022-12-01T14:45:56.314Z,156
2022-12-01T14:47:00.401Z,148
2022-12-01T14:48:04.236Z,140
2022-12-01T14:49:08.007Z,132
2022-12-01T14:50:11.843Z,128
2022-12-01T14:51:14.905Z,120
2022-12-01T14:52:18.011Z,116
2022-12-01T14:53:21.716Z,112
2022-12-01T14:54:24.134Z,108
2022-12-01T14:55:26.913Z,100
2022-12-01T14:56:29.704Z,92
2022-12-01T14:57:32.844Z,84
2022-12-01T14:58:36.523Z,72
2022-12-01T14:59:39.644Z,72